Morristown, NJ

4:47 PM EST on December 28, 2014 (GMT -0500)
Wheatsheaf | Change Station
CLOSE
Current Station
Personal Weather Station
Location: Morristown Township, NJ
Elevation: 406 ft
Nearby Weather Stations

Elev 406 ft 40.81 °N, 74.50 °W | Updated 5 minutes ago

Overcast
Overcast
48.7 °F
Feels Like 49 °F
N
2.0
Wind Variable Wind from SSE
Gusts 3.0 mph

Today
High -- | Low -- °F
--% Chance of Precip.
Yesterday
High -- | Low -- °F
Precip. -- in
7:21 AM 4:37 PM
First Quarter, 51% visible
Pressure 29.94 in
Visibility 20.0 miles
Clouds Mostly Cloudy 3000 ft
Overcast 4000 ft
Windchill 49 °F
Dew Point 42 °F
Humidity 77%
Rainfall 0.05 in
Snow Depth Not available.
UV 0 out of 12
Pollen .10 out of 12
Air Quality Not available.
Flu Activity Not available.
METAR KMMU 282045Z 34007KT 20SM BKN030 OVC040 11/06 A2994

More Conditions Fewer Conditions

Pressure 29.94 in
Visibility 20.0 miles
Clouds Mostly Cloudy 3000 ft
Overcast 4000 ft
Windchill 49 °F
Dew Point 42 °F
Humidity 77%
Rainfall 0.05 in
Snow Depth Not available.
UV 0 out of 12
Pollen .10 out of 12
Air Quality Not available.
Flu Activity Not available.
METAR KMMU 282045Z 34007KT 20SM BKN030 OVC040 11/06 A2994

More Conditions Fewer Conditions

10-Day Weather Forecast

Almanac

Astronomy

Dec. 28, 2014 Rise Set
Actual Time
Civil Twilight
Nautical Twilight
Astronomical Twilight
Moon
Length of Visible Light
Length of Day
Tomorrow will be .
, % of the Moon is Illuminated

Today's Extremes

State Highs State Lows

Community

WunderPhotos

Upload Photos

1,781,436 photos uploaded!

WunderBlogs® & News

Nearby

Air Quality

  Air Quality AQ Index Pollutant
Not available.

Snow Depth

Station Depth Elevation

Earthquake Activity

City Distance Mag. Time & Date
Minimum magnitude displayed is 2.5.

Coastal Water Temperatures

Place Temperature

Nearby Weather Stations